Hartsville, Pennsylvania
Current Conditions -  °F | °C
As of 5:54 PM on Saturday 25 Oct 2014 (Local Time) from KDYL Reporting Station
Clear Clear  
Wind Chill: 64°   Ceiling: Unl
Heat Index: 64°   Visibility: 10mi
Dew Point: 42°   Wind: 7mph
Humidity: 45%   Direction: 220°SW
Pressure: 29.67"   Gusts: NA
Location:  40.2185°N, 75.0735°W
Report Text: KDYL 252154Z AUTO 22006KT 10SM CLR 18/06 A2967 RMK AO2 SLP048 T01780056 $
Loading
Personal Weather Stations






























Interactive Weather Map
Tropical Storm Tracking
New forecast layout! Learn more

10-Day Weather Forecast

Advertisements
Track Severe Weather on mobile